Ana Sayfa
METAR-TAF:

METAR-TAF

Havaalanları :

Portage Glacier, Alaska, Amerika Birleşik Devletleri

Enlem: 60-47N, Boylam: 148-50W, yükseklik: 29 m

Güncel hava durumu gözlemi

Rapor saat 01:53 UTC de 49 dakika önce yapıldı.
Rüzgar değişken yönden 4 kt
Sıcaklık 11°C
Nem 82%
Basınç 1013 hPa
Görüş mesafesi: 16.1 km
3000 ft yükseklikte parçalı çok bulutlu
3600 ft yükseklikte çok bulutlu

METAR: PATO 160153Z AUTO VRB04KT 10SM BKN030 OVC036 11/08 A2990 RMK AO2 SLP125 T01110078 TSNO

Saat: 18:42 (02:42 UTC)


TAF: eksik

4.000'den fazla havaalanı için hava durumu gözlemleri ve tahminleri (METAR ve TAF raporları).

Kullanılabilir istasyonlar harita üzerinde sarı ve kırmızı noktalarla gösterilir.

İstasyonun adını görmek için fareyi noktanın üzerinde gezdirin.

Sonrasında hava gözlem ve tahminlerini görmek için tıklayın.

Haritayı değiştirmek için: yaklaştırmak için siyah artı işaretli yeşil düğmeye ve uzaklaştırmak için de eksi işaretli düğmeye hızla tıklayın; bitişik haritalar için yeşil okları kullanın.


METAR-TAF: